Time;durP1;ratioP1;P1;durP2;ratioP2;P2;SDS_P1;SDS_P2;PMS_P1;PMS_P2;Temp;Humidity;BMP_temperature;BMP_pressure;BME280_temperature;BME280_humidity;BME280_pressure;Samples;Min_cycle;Max_cycle;Signal;HPM_P1;HPM_P2
2021/01/28 00:00:57;;;;;;;40.10;28.60;;;;;;;;;;5052336;28;21037;-69
2021/01/28 00:03:24;;;;;;;39.73;26.97;;;;;;;;;;5052113;28;20459;-70
2021/01/28 00:05:51;;;;;;;34.47;25.20;;;;;;;;;;5057589;28;20859;-70
2021/01/28 00:08:18;;;;;;;35.80;26.00;;;;;;;;;;5059234;28;20464;-70
2021/01/28 00:10:44;;;;;;;36.00;26.13;;;;;;;;;;5057979;28;20510;-70
2021/01/28 00:13:12;;;;;;;42.07;28.23;;;;;;;;;;5051493;28;20451;-70
2021/01/28 00:15:39;;;;;;;39.70;28.40;;;;;;;;;;5048213;28;20490;-70
2021/01/28 00:18:06;;;;;;;38.87;27.20;;;;;;;;;;5052752;28;20830;-70
2021/01/28 00:20:34;;;;;;;38.00;26.90;;;;;;;;;;5051493;28;20494;-69
2021/01/28 00:23:02;;;;;;;39.47;28.10;;;;;;;;;;5051564;28;20984;-69
2021/01/28 00:25:28;;;;;;;37.87;26.40;;;;;;;;;;5051385;28;20501;-69
2021/01/28 00:27:55;;;;;;;39.43;29.00;;;;;;;;;;5052072;28;20452;-69
2021/01/28 00:30:23;;;;;;;38.10;27.73;;;;;;;;;;5047869;28;20491;-69
2021/01/28 00:32:50;;;;;;;42.70;28.00;;;;;;;;;;5052297;28;20454;-69
2021/01/28 00:35:18;;;;;;;40.00;28.17;;;;;;;;;;5049491;28;20463;-69
2021/01/28 00:37:44;;;;;;;41.90;29.13;;;;;;;;;;5043635;28;20445;-69
2021/01/28 00:40:13;;;;;;;36.43;25.63;;;;;;;;;;5046676;28;20552;-70
2021/01/28 00:42:39;;;;;;;36.00;26.73;;;;;;;;;;5052442;28;20965;-70
2021/01/28 00:45:06;;;;;;;43.07;27.63;;;;;;;;;;5049205;28;20456;-70
2021/01/28 00:47:33;;;;;;;35.17;25.30;;;;;;;;;;5051304;28;20475;-70
2021/01/28 00:50:00;;;;;;;35.07;25.03;;;;;;;;;;5048891;28;20490;-70
2021/01/28 00:52:26;;;;;;;45.33;27.23;;;;;;;;;;5051946;28;20452;-70
2021/01/28 00:54:53;;;;;;;33.90;24.60;;;;;;;;;;5051022;28;20843;-72
2021/01/28 00:57:20;;;;;;;27.37;20.30;;;;;;;;;;5051987;28;20444;-70
2021/01/28 00:59:47;;;;;;;30.23;22.37;;;;;;;;;;5045531;28;20492;-70
2021/01/28 01:02:13;;;;;;;31.27;21.50;;;;;;;;;;5051634;28;20947;-70
2021/01/28 01:04:40;;;;;;;25.53;19.10;;;;;;;;;;5051306;28;20471;-69
2021/01/28 01:07:07;;;;;;;28.07;17.43;;;;;;;;;;5052368;28;20487;-69
2021/01/28 01:09:33;;;;;;;25.03;17.73;;;;;;;;;;5048562;28;20652;-70
2021/01/28 01:12:00;;;;;;;23.50;18.47;;;;;;;;;;5052812;28;20452;-70
2021/01/28 01:14:27;;;;;;;23.13;18.33;;;;;;;;;;5052048;28;20831;-70
2021/01/28 01:16:54;;;;;;;24.97;18.23;;;;;;;;;;5051724;28;20455;-69
2021/01/28 01:19:21;;;;;;;25.47;20.03;;;;;;;;;;5048154;28;20483;-70
2021/01/28 01:21:47;;;;;;;24.87;19.70;;;;;;;;;;5050773;28;20471;-69
2021/01/28 01:24:14;;;;;;;24.73;20.53;;;;;;;;;;5050604;28;20462;-69
2021/01/28 01:26:40;;;;;;;22.30;16.77;;;;;;;;;;5050344;28;20483;-71
2021/01/28 01:29:07;;;;;;;24.63;19.40;;;;;;;;;;5050837;28;20580;-70
2021/01/28 01:31:34;;;;;;;28.40;21.60;;;;;;;;;;5049592;28;21005;-70
2021/01/28 01:34:01;;;;;;;24.70;17.43;;;;;;;;;;5049353;28;20470;-70
2021/01/28 01:36:27;;;;;;;21.43;16.47;;;;;;;;;;5051789;28;20440;-70
2021/01/28 01:38:54;;;;;;;24.93;17.13;;;;;;;;;;5050673;28;20447;-70
2021/01/28 01:41:21;;;;;;;21.63;17.70;;;;;;;;;;5040426;28;20501;-70
2021/01/28 01:43:57;;;;;;;18.10;16.23;;;;;;;;;;5050783;28;20455;-70
2021/01/28 01:46:24;;;;;;;19.33;16.97;;;;;;;;;;5051167;28;20540;-70
2021/01/28 01:48:53;;;;;;;13.30;9.17;;;;;;;;;;5048320;28;20472;-70
2021/01/28 01:51:22;;;;;;;11.97;10.77;;;;;;;;;;5050530;28;20872;-70
2021/01/28 01:53:55;;;;;;;11.07;10.03;;;;;;;;;;5052056;28;20948;-70
2021/01/28 01:56:25;;;;;;;10.90;9.90;;;;;;;;;;5049581;28;20696;-69
2021/01/28 01:58:57;;;;;;;11.93;10.63;;;;;;;;;;5050977;28;20811;-69
2021/01/28 02:01:25;;;;;;;11.53;10.30;;;;;;;;;;5050382;28;20455;-70
2021/01/28 02:03:54;;;;;;;11.60;10.40;;;;;;;;;;5048878;28;21019;-69
2021/01/28 02:06:28;;;;;;;12.20;10.87;;;;;;;;;;5049614;28;20483;-70
2021/01/28 02:08:56;;;;;;;12.80;11.23;;;;;;;;;;5050806;28;20451;-68
2021/01/28 02:11:23;;;;;;;15.33;12.40;;;;;;;;;;5050497;28;20460;-68
2021/01/28 02:13:51;;;;;;;14.97;12.67;;;;;;;;;;5050040;28;20687;-69
2021/01/28 02:16:19;;;;;;;18.40;14.73;;;;;;;;;;5051321;28;20815;-69
2021/01/28 02:18:46;;;;;;;20.23;15.67;;;;;;;;;;5049849;28;20459;-69
2021/01/28 02:21:24;;;;;;;22.90;15.87;;;;;;;;;;5048139;28;20976;-69
2021/01/28 02:24:01;;;;;;;20.10;15.77;;;;;;;;;;5046870;28;20451;-69
2021/01/28 02:26:28;;;;;;;20.67;16.30;;;;;;;;;;5050256;28;20490;-69
2021/01/28 02:28:55;;;;;;;18.37;14.90;;;;;;;;;;5049827;28;20471;-69
2021/01/28 02:31:22;;;;;;;22.07;16.37;;;;;;;;;;5051061;28;20448;-69
2021/01/28 02:33:50;;;;;;;20.53;15.30;;;;;;;;;;5050684;28;20493;-69
2021/01/28 02:36:17;;;;;;;19.33;14.43;;;;;;;;;;5050658;28;20528;-69
2021/01/28 02:38:44;;;;;;;21.17;15.20;;;;;;;;;;5052842;28;20464;-69
2021/01/28 02:41:12;;;;;;;23.23;17.27;;;;;;;;;;5053956;28;20747;-69
2021/01/28 02:43:39;;;;;;;21.03;16.17;;;;;;;;;;5049465;28;20981;-70
2021/01/28 02:46:08;;;;;;;23.20;17.40;;;;;;;;;;5054401;28;21008;-69
2021/01/28 02:48:35;;;;;;;24.03;17.60;;;;;;;;;;5053903;28;20460;-69
2021/01/28 02:51:02;;;;;;;22.00;16.80;;;;;;;;;;5053645;28;21002;-69
2021/01/28 02:53:35;;;;;;;26.13;18.10;;;;;;;;;;5052985;28;20471;-69
2021/01/28 02:56:01;;;;;;;24.30;17.97;;;;;;;;;;5053641;28;20474;-69
2021/01/28 02:58:28;;;;;;;26.80;17.57;;;;;;;;;;5054116;28;20448;-68
2021/01/28 03:00:56;;;;;;;22.80;16.70;;;;;;;;;;5050391;28;20506;-68
2021/01/28 03:03:23;;;;;;;27.10;18.10;;;;;;;;;;5081404;22;20904;-66
2021/01/28 03:05:49;;;;;;;27.00;18.03;;;;;;;;;;5065160;28;20451;-66
2021/01/28 03:08:16;;;;;;;24.90;17.00;;;;;;;;;;5044533;28;20810;-65
2021/01/28 03:10:43;;;;;;;21.20;16.40;;;;;;;;;;5053943;28;21027;-65
2021/01/28 03:13:10;;;;;;;23.33;16.87;;;;;;;;;;5047175;28;20480;-65
2021/01/28 03:15:37;;;;;;;24.53;16.60;;;;;;;;;;5048152;28;20455;-65
2021/01/28 03:18:05;;;;;;;21.03;14.73;;;;;;;;;;5033047;28;20773;-65
2021/01/28 03:20:31;;;;;;;21.33;15.47;;;;;;;;;;5049833;28;20451;-65
2021/01/28 03:22:58;;;;;;;20.53;15.73;;;;;;;;;;5040589;28;20472;-66
2021/01/28 03:25:25;;;;;;;22.37;16.87;;;;;;;;;;5050191;28;20456;-66
2021/01/28 03:27:52;;;;;;;21.50;15.57;;;;;;;;;;5035409;28;20488;-66
2021/01/28 03:30:21;;;;;;;22.60;15.07;;;;;;;;;;5041660;28;20473;-65
2021/01/28 03:32:48;;;;;;;19.70;14.30;;;;;;;;;;5033359;28;20464;-66
2021/01/28 03:35:16;;;;;;;20.13;15.97;;;;;;;;;;5033693;28;20472;-66
2021/01/28 03:37:43;;;;;;;21.23;16.20;;;;;;;;;;5033385;28;20519;-65
2021/01/28 03:40:10;;;;;;;25.87;16.77;;;;;;;;;;5033475;28;20453;-65
2021/01/28 03:42:37;;;;;;;21.83;15.97;;;;;;;;;;5033056;28;20488;-66
2021/01/28 03:45:04;;;;;;;21.20;14.30;;;;;;;;;;5042865;28;20467;-65
2021/01/28 03:47:31;;;;;;;19.53;14.60;;;;;;;;;;5033967;28;20991;-65
2021/01/28 03:49:58;;;;;;;19.27;15.03;;;;;;;;;;5043241;28;20464;-65
2021/01/28 03:52:25;;;;;;;19.13;15.17;;;;;;;;;;5033270;28;20472;-64
2021/01/28 03:54:52;;;;;;;16.23;12.53;;;;;;;;;;5049453;28;20478;-65
2021/01/28 03:57:19;;;;;;;14.47;12.80;;;;;;;;;;5040247;28;20468;-65
2021/01/28 03:59:45;;;;;;;13.77;11.57;;;;;;;;;;5032582;28;20486;-66
2021/01/28 04:02:12;;;;;;;14.10;11.63;;;;;;;;;;5056755;28;20491;-66
2021/01/28 04:04:38;;;;;;;15.70;13.43;;;;;;;;;;5049538;28;20448;-64
2021/01/28 04:07:05;;;;;;;15.57;13.43;;;;;;;;;;5038290;28;20488;-64
2021/01/28 04:09:32;;;;;;;16.00;13.30;;;;;;;;;;5039190;28;20513;-65
2021/01/28 04:11:59;;;;;;;14.37;12.70;;;;;;;;;;5033088;28;20477;-66
2021/01/28 04:14:26;;;;;;;16.77;13.57;;;;;;;;;;5033908;28;20468;-65
2021/01/28 04:16:52;;;;;;;13.87;11.67;;;;;;;;;;5050866;28;20444;-64
2021/01/28 04:19:19;;;;;;;16.27;13.13;;;;;;;;;;5051341;28;20813;-64
2021/01/28 04:21:45;;;;;;;14.00;12.60;;;;;;;;;;5049171;28;22010;-65
2021/01/28 04:24:12;;;;;;;12.77;11.37;;;;;;;;;;5041272;28;20461;-65
2021/01/28 04:26:39;;;;;;;13.13;11.73;;;;;;;;;;5035114;28;20574;-65
2021/01/28 04:29:06;;;;;;;13.77;12.20;;;;;;;;;;5033361;28;20532;-65
2021/01/28 04:31:33;;;;;;;13.70;12.20;;;;;;;;;;5045170;28;20479;-65
2021/01/28 04:34:00;;;;;;;12.17;11.07;;;;;;;;;;5047030;28;20871;-65
2021/01/28 04:36:27;;;;;;;12.87;11.57;;;;;;;;;;5033790;28;20506;-65
2021/01/28 04:38:53;;;;;;;12.73;11.43;;;;;;;;;;5031596;28;20934;-64
2021/01/28 04:41:22;;;;;;;12.53;11.30;;;;;;;;;;5047836;28;20478;-65
2021/01/28 04:43:50;;;;;;;12.50;11.20;;;;;;;;;;5042907;28;20494;-64
2021/01/28 04:46:23;;;;;;;11.97;10.77;;;;;;;;;;5051862;28;20480;-64
2021/01/28 04:48:49;;;;;;;10.97;9.87;;;;;;;;;;5030002;28;20527;-64
2021/01/28 04:51:16;;;;;;;13.60;12.20;;;;;;;;;;5032606;28;20476;-66
2021/01/28 04:53:48;;;;;;;13.40;11.17;;;;;;;;;;5043301;28;20488;-65
2021/01/28 04:56:16;;;;;;;13.20;11.90;;;;;;;;;;5040335;28;20482;-64
2021/01/28 04:58:43;;;;;;;12.40;11.20;;;;;;;;;;5051771;28;20451;-65
2021/01/28 05:01:10;;;;;;;11.13;10.13;;;;;;;;;;5049293;28;20958;-65
2021/01/28 05:03:39;;;;;;;13.70;12.27;;;;;;;;;;5051690;28;20482;-64
2021/01/28 05:06:06;;;;;;;13.53;12.13;;;;;;;;;;5048849;28;21029;-65
2021/01/28 05:08:33;;;;;;;11.50;10.43;;;;;;;;;;5048931;28;20463;-64
2021/01/28 05:11:01;;;;;;;11.43;10.40;;;;;;;;;;5033014;28;20452;-65
2021/01/28 05:13:29;;;;;;;12.83;11.57;;;;;;;;;;5042012;28;20490;-65
2021/01/28 05:15:57;;;;;;;11.93;10.73;;;;;;;;;;5032101;28;20880;-65
2021/01/28 05:18:27;;;;;;;11.90;10.80;;;;;;;;;;5041076;28;20968;-65
2021/01/28 05:21:02;;;;;;;12.70;11.40;;;;;;;;;;5051959;28;20448;-65
2021/01/28 05:23:30;;;;;;;12.03;10.70;;;;;;;;;;5049746;28;20544;-66
2021/01/28 05:25:57;;;;;;;12.20;11.00;;;;;;;;;;5036244;28;21024;-66
2021/01/28 05:28:25;;;;;;;13.07;11.67;;;;;;;;;;5034893;28;20449;-65
2021/01/28 05:30:52;;;;;;;12.20;10.83;;;;;;;;;;5043118;28;20460;-65
2021/01/28 05:33:30;;;;;;;13.47;12.13;;;;;;;;;;5051237;28;20655;-65
2021/01/28 05:36:05;;;;;;;13.90;11.67;;;;;;;;;;5040371;28;20469;-65
2021/01/28 05:38:34;;;;;;;13.80;12.40;;;;;;;;;;5046890;28;20463;-65
2021/01/28 05:41:01;;;;;;;14.60;12.50;;;;;;;;;;5031367;28;20978;-65
2021/01/28 05:43:31;;;;;;;12.53;11.33;;;;;;;;;;5030241;28;20840;-64
2021/01/28 05:46:10;;;;;;;14.00;12.60;;;;;;;;;;5030538;28;21061;-64
2021/01/28 05:48:38;;;;;;;13.77;12.43;;;;;;;;;;5030429;28;20475;-65
2021/01/28 05:51:10;;;;;;;13.50;12.27;;;;;;;;;;5036282;28;20526;-65
2021/01/28 05:53:37;;;;;;;15.30;13.80;;;;;;;;;;5047703;28;20487;-65
2021/01/28 05:56:04;;;;;;;13.33;12.03;;;;;;;;;;5035714;28;20878;-66
2021/01/28 05:58:36;;;;;;;14.07;12.63;;;;;;;;;;5032585;28;20465;-65
2021/01/28 06:01:08;;;;;;;13.20;11.80;;;;;;;;;;5048152;28;20468;-65
2021/01/28 06:03:48;;;;;;;14.40;12.70;;;;;;;;;;5050157;28;20490;-66
2021/01/28 06:06:21;;;;;;;13.50;12.10;;;;;;;;;;5030890;28;20469;-64
2021/01/28 06:09:03;;;;;;;12.83;11.60;;;;;;;;;;5030975;28;20436;-65
2021/01/28 06:11:49;;;;;;;13.87;12.50;;;;;;;;;;5031421;28;21038;-64
2021/01/28 06:14:32;;;;;;;14.13;12.73;;;;;;;;;;5052229;28;20459;-65
2021/01/28 06:17:08;;;;;;;14.73;12.90;;;;;;;;;;5052503;28;20435;-65
2021/01/28 06:19:43;;;;;;;14.30;12.97;;;;;;;;;;5034357;28;20455;-65
2021/01/28 06:22:14;;;;;;;13.07;11.67;;;;;;;;;;5034001;28;20499;-65
2021/01/28 06:24:45;;;;;;;14.53;13.03;;;;;;;;;;5035682;28;20462;-65
2021/01/28 06:27:19;;;;;;;15.10;13.50;;;;;;;;;;5045713;28;20862;-64
2021/01/28 06:29:59;;;;;;;15.87;13.10;;;;;;;;;;5036974;28;20496;-65
2021/01/28 06:32:52;;;;;;;16.60;13.37;;;;;;;;;;5042753;28;20476;-64
2021/01/28 06:35:29;;;;;;;13.40;12.10;;;;;;;;;;4998013;28;20458;-64
2021/01/28 06:38:00;;;;;;;15.43;13.97;;;;;;;;;;5035158;28;20944;-65
2021/01/28 06:40:31;;;;;;;14.90;13.50;;;;;;;;;;5048709;28;20461;-65
2021/01/28 06:43:00;;;;;;;15.93;14.33;;;;;;;;;;5044083;28;20494;-65
2021/01/28 06:45:29;;;;;;;14.87;13.33;;;;;;;;;;5048172;28;21016;-65
2021/01/28 06:47:57;;;;;;;14.77;13.37;;;;;;;;;;5033975;28;20492;-65
2021/01/28 06:50:30;;;;;;;15.07;13.50;;;;;;;;;;5039200;28;20498;-65
2021/01/28 06:53:02;;;;;;;15.70;14.10;;;;;;;;;;5053595;28;20483;-65
2021/01/28 06:55:34;;;;;;;15.60;14.10;;;;;;;;;;5039689;28;20959;-65
2021/01/28 06:58:09;;;;;;;14.60;13.13;;;;;;;;;;5048649;28;20459;-65
2021/01/28 07:00:37;;;;;;;15.73;14.10;;;;;;;;;;5044173;28;20547;-64
2021/01/28 07:03:07;;;;;;;4.80;3.60;;;;;;;;;;5035119;28;20542;-67
2021/01/28 07:05:44;;;;;;;6.10;2.90;;;;;;;;;;5051148;28;20464;-66
2021/01/28 07:08:17;;;;;;;5.90;3.70;;;;;;;;;;5032535;28;20492;-66
2021/01/28 07:10:44;;;;;;;5.10;3.77;;;;;;;;;;5035094;28;20468;-66
2021/01/28 07:13:12;;;;;;;4.57;4.17;;;;;;;;;;5054505;28;20470;-67
2021/01/28 07:15:39;;;;;;;4.70;4.30;;;;;;;;;;5052227;28;20798;-67
2021/01/28 07:18:08;;;;;;;4.60;4.20;;;;;;;;;;5052562;28;20928;-68
2021/01/28 07:20:37;;;;;;;5.67;4.53;;;;;;;;;;5036026;28;20464;-67
2021/01/28 07:23:20;;;;;;;4.30;4.00;;;;;;;;;;5046306;28;20472;-67
2021/01/28 07:25:47;;;;;;;4.40;4.00;;;;;;;;;;5045102;28;20982;-67
2021/01/28 07:28:25;;;;;;;3.50;3.10;;;;;;;;;;5034001;28;20488;-68
2021/01/28 07:30:52;;;;;;;3.80;2.77;;;;;;;;;;5044911;28;20459;-67
2021/01/28 07:33:34;;;;;;;3.37;3.07;;;;;;;;;;5040994;28;20488;-67
2021/01/28 07:36:02;;;;;;;3.00;2.70;;;;;;;;;;5051477;28;20447;-67
2021/01/28 07:38:47;;;;;;;3.13;2.80;;;;;;;;;;5033203;28;20488;-68
2021/01/28 07:41:20;;;;;;;2.87;2.67;;;;;;;;;;5034184;28;20428;-67
2021/01/28 07:43:48;;;;;;;3.30;3.00;;;;;;;;;;5031663;28;20481;-68
2021/01/28 07:46:17;;;;;;;6.10;3.50;;;;;;;;;;5032916;28;20986;-68
2021/01/28 07:48:45;;;;;;;2.93;2.63;;;;;;;;;;5046883;28;20459;-67
2021/01/28 07:51:31;;;;;;;2.50;2.30;;;;;;;;;;5042825;28;20939;-67
2021/01/28 07:53:58;;;;;;;2.57;2.37;;;;;;;;;;5051632;28;20463;-67
2021/01/28 07:56:44;;;;;;;3.10;2.83;;;;;;;;;;5050429;28;20820;-67
2021/01/28 07:59:12;;;;;;;2.70;2.50;;;;;;;;;;5040360;28;20584;-68
2021/01/28 08:01:41;;;;;;;2.70;2.50;;;;;;;;;;5053356;28;20447;-68
2021/01/28 08:04:13;;;;;;;2.83;2.40;;;;;;;;;;5034533;28;20452;-69
2021/01/28 08:06:40;;;;;;;3.03;2.70;;;;;;;;;;5040810;28;20487;-67
2021/01/28 08:09:07;;;;;;;2.60;2.33;;;;;;;;;;5053147;28;20452;-69
2021/01/28 08:11:34;;;;;;;2.83;2.40;;;;;;;;;;5044655;28;20453;-65
2021/01/28 08:14:03;;;;;;;4.07;2.93;;;;;;;;;;5033294;28;20448;-64
2021/01/28 08:16:30;;;;;;;2.63;2.40;;;;;;;;;;5047848;28;20502;-65
2021/01/28 08:19:05;;;;;;;3.07;2.80;;;;;;;;;;5032748;28;20449;-64
2021/01/28 08:21:32;;;;;;;8.27;7.57;;;;;;;;;;5033909;28;20448;-67
2021/01/28 08:24:12;;;;;;;8.00;7.40;;;;;;;;;;5052907;28;20452;-65
2021/01/28 08:26:42;;;;;;;8.70;8.00;;;;;;;;;;5043006;28;20481;-65
2021/01/28 08:29:13;;;;;;;10.50;9.60;;;;;;;;;;5041757;28;20457;-65
2021/01/28 08:31:41;;;;;;;11.27;10.10;;;;;;;;;;5035344;28;20456;-65
2021/01/28 08:34:09;;;;;;;10.67;9.73;;;;;;;;;;5032610;28;20444;-65
2021/01/28 08:36:42;;;;;;;11.50;10.40;;;;;;;;;;5050079;28;20449;-66
2021/01/28 08:39:11;;;;;;;10.43;9.43;;;;;;;;;;5037344;28;20456;-64
2021/01/28 08:41:39;;;;;;;10.00;9.00;;;;;;;;;;5033238;28;20456;-65
2021/01/28 08:44:07;;;;;;;10.60;9.53;;;;;;;;;;5035491;28;20444;-64
2021/01/28 08:46:35;;;;;;;9.57;8.67;;;;;;;;;;5046070;28;20531;-66
2021/01/28 08:49:04;;;;;;;8.67;7.90;;;;;;;;;;5055424;28;20444;-65
2021/01/28 08:51:31;;;;;;;8.77;7.97;;;;;;;;;;5056805;28;20486;-65
2021/01/28 08:54:00;;;;;;;8.67;8.00;;;;;;;;;;5063221;28;20525;-63
2021/01/28 08:56:29;;;;;;;9.43;8.67;;;;;;;;;;5041373;28;20448;-65
2021/01/28 08:58:56;;;;;;;9.63;8.93;;;;;;;;;;5044469;28;20445;-65
2021/01/28 09:01:23;;;;;;;9.23;8.60;;;;;;;;;;5048209;28;20479;-65
2021/01/28 09:03:55;;;;;;;8.97;8.27;;;;;;;;;;5044014;28;20484;-65
2021/01/28 09:06:21;;;;;;;9.60;8.90;;;;;;;;;;5039413;28;20453;-65
2021/01/28 09:08:59;;;;;;;10.20;9.40;;;;;;;;;;5037482;28;20453;-66
2021/01/28 09:11:27;;;;;;;10.00;9.20;;;;;;;;;;5035335;28;20468;-65
2021/01/28 09:14:05;;;;;;;10.00;9.20;;;;;;;;;;5034488;28;20464;-65
2021/01/28 09:16:32;;;;;;;10.73;9.93;;;;;;;;;;5034718;28;20463;-65
2021/01/28 09:19:09;;;;;;;10.20;9.40;;;;;;;;;;5033423;28;20449;-65
2021/01/28 09:21:39;;;;;;;10.73;9.83;;;;;;;;;;5034232;28;20444;-66
2021/01/28 09:24:16;;;;;;;10.70;9.90;;;;;;;;;;5034054;28;20449;-65
2021/01/28 09:26:43;;;;;;;9.83;9.13;;;;;;;;;;5033452;28;20476;-66
2021/01/28 09:29:10;;;;;;;9.97;9.17;;;;;;;;;;5033633;28;20464;-66
2021/01/28 09:31:37;;;;;;;11.00;10.20;;;;;;;;;;5032844;28;20437;-66
2021/01/28 09:34:15;;;;;;;9.87;9.07;;;;;;;;;;5033142;28;20828;-65
2021/01/28 09:36:42;;;;;;;10.50;9.70;;;;;;;;;;5049137;28;20843;-65
2021/01/28 09:39:13;;;;;;;11.07;10.10;;;;;;;;;;5031627;28;20974;-66
2021/01/28 09:41:42;;;;;;;9.47;8.67;;;;;;;;;;5047734;28;20524;-63
2021/01/28 09:44:29;;;;;;;10.87;10.03;;;;;;;;;;5034202;28;20536;-65
2021/01/28 09:47:13;;;;;;;10.00;9.30;;;;;;;;;;5039797;28;20925;-62
2021/01/28 09:49:41;;;;;;;11.23;10.37;;;;;;;;;;5049309;28;20966;-66
2021/01/28 09:52:10;;;;;;;11.57;10.67;;;;;;;;;;5033356;28;20476;-66
2021/01/28 09:54:36;;;;;;;10.40;9.60;;;;;;;;;;5042558;28;20547;-66
2021/01/28 09:57:03;;;;;;;10.43;9.53;;;;;;;;;;5031445;28;20874;-65
2021/01/28 09:59:30;;;;;;;10.60;9.80;;;;;;;;;;5042457;28;20506;-66
2021/01/28 10:01:57;;;;;;;9.60;8.90;;;;;;;;;;5046792;28;20549;-66
2021/01/28 10:04:23;;;;;;;9.50;8.80;;;;;;;;;;5049409;28;20451;-68
2021/01/28 10:06:51;;;;;;;10.43;9.43;;;;;;;;;;5051727;28;20480;-66
2021/01/28 10:09:17;;;;;;;9.87;9.10;;;;;;;;;;5051516;28;20454;-67
2021/01/28 10:11:45;;;;;;;10.77;9.87;;;;;;;;;;5050365;28;20539;-66
2021/01/28 10:14:12;;;;;;;9.87;8.97;;;;;;;;;;5044790;28;20448;-66
2021/01/28 10:16:39;;;;;;;9.10;8.40;;;;;;;;;;5034844;28;20471;-66
2021/01/28 10:19:05;;;;;;;8.77;7.97;;;;;;;;;;5031336;28;20454;-65
2021/01/28 10:21:32;;;;;;;8.27;7.67;;;;;;;;;;5030938;28;20457;-66
2021/01/28 10:23:59;;;;;;;8.37;7.70;;;;;;;;;;5031715;28;20491;-66
2021/01/28 10:26:26;;;;;;;6.90;6.40;;;;;;;;;;5041611;28;20455;-66
2021/01/28 10:28:53;;;;;;;7.97;7.37;;;;;;;;;;5049405;28;20497;-66
2021/01/28 10:31:19;;;;;;;6.03;5.63;;;;;;;;;;5042169;28;20499;-65
2021/01/28 10:33:47;;;;;;;6.83;6.13;;;;;;;;;;5036980;28;20477;-68
2021/01/28 10:36:14;;;;;;;6.70;6.20;;;;;;;;;;5050974;28;20464;-66
2021/01/28 10:38:41;;;;;;;7.23;6.73;;;;;;;;;;5050954;28;20444;-66
2021/01/28 10:41:08;;;;;;;6.63;6.07;;;;;;;;;;5051602;28;20531;-66
2021/01/28 10:43:35;;;;;;;7.17;6.67;;;;;;;;;;5030289;28;20519;-67
2021/01/28 10:46:01;;;;;;;7.60;6.80;;;;;;;;;;5031403;28;20448;-66
2021/01/28 10:48:28;;;;;;;7.77;7.00;;;;;;;;;;5030732;28;20484;-66
2021/01/28 10:50:55;;;;;;;8.80;8.07;;;;;;;;;;5030423;28;20456;-66
2021/01/28 10:53:21;;;;;;;8.93;8.17;;;;;;;;;;5030861;28;20487;-66
2021/01/28 10:55:48;;;;;;;9.50;8.67;;;;;;;;;;5030858;28;20445;-66
2021/01/28 10:58:15;;;;;;;9.00;8.40;;;;;;;;;;5033712;28;20449;-68
2021/01/28 11:00:42;;;;;;;8.90;8.20;;;;;;;;;;5034793;28;20445;-68
2021/01/28 11:03:08;;;;;;;9.10;8.40;;;;;;;;;;5034213;28;20881;-63
2021/01/28 11:05:36;;;;;;;8.57;7.87;;;;;;;;;;5034337;28;20445;-64
2021/01/28 11:08:03;;;;;;;8.83;8.13;;;;;;;;;;5034109;28;20476;-63
2021/01/28 11:10:30;;;;;;;8.97;8.17;;;;;;;;;;5034229;28;20448;-63
2021/01/28 11:12:57;;;;;;;9.87;8.93;;;;;;;;;;5034639;28;20474;-63
2021/01/28 11:15:26;;;;;;;9.63;8.77;;;;;;;;;;5034321;28;20460;-64
2021/01/28 11:17:53;;;;;;;9.27;8.57;;;;;;;;;;5034210;28;20460;-62
2021/01/28 11:20:19;;;;;;;8.37;7.60;;;;;;;;;;5034473;28;20449;-63
2021/01/28 11:22:46;;;;;;;8.37;7.67;;;;;;;;;;5035088;28;20465;-66
2021/01/28 11:25:14;;;;;;;8.37;7.57;;;;;;;;;;5034338;28;20464;-64
2021/01/28 11:27:41;;;;;;;6.93;6.43;;;;;;;;;;5044372;28;21215;-64
2021/01/28 11:30:09;;;;;;;7.83;7.03;;;;;;;;;;5053928;28;20488;-67
2021/01/28 11:32:36;;;;;;;8.83;8.03;;;;;;;;;;5049346;28;20494;-68
2021/01/28 11:35:03;;;;;;;11.80;6.73;;;;;;;;;;5045269;28;20453;-65
2021/01/28 11:37:29;;;;;;;6.90;6.30;;;;;;;;;;5033716;28;20447;-66
2021/01/28 11:39:56;;;;;;;7.00;6.30;;;;;;;;;;5049713;28;20460;-66
2021/01/28 11:42:23;;;;;;;7.17;6.67;;;;;;;;;;5053866;28;20476;-66
2021/01/28 11:44:49;;;;;;;7.97;7.30;;;;;;;;;;5047992;28;20447;-66
2021/01/28 11:47:16;;;;;;;7.77;7.13;;;;;;;;;;5033472;28;20484;-66
2021/01/28 11:49:44;;;;;;;6.80;6.20;;;;;;;;;;5033636;28;20474;-66
2021/01/28 11:52:10;;;;;;;7.50;6.90;;;;;;;;;;5033661;28;20469;-66
2021/01/28 11:54:37;;;;;;;7.27;6.70;;;;;;;;;;5034383;28;20461;-66
2021/01/28 11:57:04;;;;;;;7.80;7.20;;;;;;;;;;5033605;28;20453;-66
2021/01/28 11:59:30;;;;;;;8.20;7.60;;;;;;;;;;5033403;28;20456;-67
2021/01/28 12:01:57;;;;;;;6.80;6.30;;;;;;;;;;5033053;28;21000;-66
2021/01/28 12:04:23;;;;;;;7.80;7.20;;;;;;;;;;5033645;28;20463;-66
2021/01/28 12:06:51;;;;;;;7.30;6.70;;;;;;;;;;5032936;28;20457;-68
2021/01/28 12:09:17;;;;;;;7.77;7.00;;;;;;;;;;5032139;28;20455;-66
2021/01/28 12:11:44;;;;;;;7.87;7.20;;;;;;;;;;5033387;28;20448;-66
2021/01/28 12:14:11;;;;;;;8.03;7.30;;;;;;;;;;5033056;28;20968;-66
2021/01/28 12:16:37;;;;;;;7.63;7.00;;;;;;;;;;5033467;28;20449;-66
2021/01/28 12:19:04;;;;;;;8.30;7.60;;;;;;;;;;5032924;28;20837;-66
2021/01/28 12:21:30;;;;;;;8.67;8.00;;;;;;;;;;5033046;28;20494;-67
2021/01/28 12:23:58;;;;;;;8.60;7.90;;;;;;;;;;5032556;28;20845;-66
2021/01/28 12:26:24;;;;;;;7.73;7.13;;;;;;;;;;5032945;28;20456;-68
2021/01/28 12:28:51;;;;;;;8.07;7.47;;;;;;;;;;5031911;28;20487;-66
2021/01/28 12:31:18;;;;;;;7.83;7.00;;;;;;;;;;5032719;28;20455;-66
2021/01/28 12:33:44;;;;;;;7.67;7.07;;;;;;;;;;5032577;28;20472;-66
2021/01/28 12:36:11;;;;;;;7.10;6.50;;;;;;;;;;5032780;28;20461;-66
2021/01/28 12:38:38;;;;;;;6.40;5.90;;;;;;;;;;5032816;28;20503;-66
2021/01/28 12:41:05;;;;;;;6.43;5.80;;;;;;;;;;5032306;28;20449;-66
2021/01/28 12:43:32;;;;;;;5.50;5.10;;;;;;;;;;5032796;28;20476;-66
2021/01/28 12:45:59;;;;;;;6.23;5.53;;;;;;;;;;5031642;28;20460;-66
2021/01/28 12:48:25;;;;;;;5.80;5.27;;;;;;;;;;5031656;28;20485;-67
2021/01/28 12:50:52;;;;;;;4.80;4.50;;;;;;;;;;5032223;28;20486;-66
2021/01/28 12:53:19;;;;;;;4.90;4.53;;;;;;;;;;5041902;28;20468;-65
2021/01/28 12:55:46;;;;;;;4.57;4.23;;;;;;;;;;5068639;28;20452;-66
2021/01/28 12:58:14;;;;;;;4.40;4.00;;;;;;;;;;5039053;28;20467;-66
2021/01/28 13:00:41;;;;;;;4.03;3.67;;;;;;;;;;5053549;28;20501;-66
2021/01/28 13:03:08;;;;;;;4.47;4.13;;;;;;;;;;5059905;28;20479;-68
2021/01/28 13:05:35;;;;;;;3.47;3.17;;;;;;;;;;5035242;28;20452;-66
2021/01/28 13:08:02;;;;;;;4.00;3.43;;;;;;;;;;5065604;28;20857;-69
2021/01/28 13:10:29;;;;;;;5.30;3.70;;;;;;;;;;5075486;28;20457;-67
2021/01/28 13:12:55;;;;;;;4.17;3.10;;;;;;;;;;5076529;28;20525;-67
2021/01/28 13:15:23;;;;;;;5.17;3.10;;;;;;;;;;5052564;28;20825;-67
2021/01/28 13:17:50;;;;;;;4.30;2.90;;;;;;;;;;5038369;28;20805;-66
2021/01/28 13:20:17;;;;;;;3.90;3.07;;;;;;;;;;5051995;28;20969;-66
2021/01/28 13:22:44;;;;;;;4.30;2.97;;;;;;;;;;5049965;28;20527;-67
2021/01/28 13:25:12;;;;;;;5.20;2.97;;;;;;;;;;5051779;28;20450;-67
2021/01/28 13:27:39;;;;;;;5.73;3.10;;;;;;;;;;5048707;28;20484;-67
2021/01/28 13:30:06;;;;;;;5.97;3.30;;;;;;;;;;5032011;28;20445;-66
2021/01/28 13:32:34;;;;;;;2.80;2.47;;;;;;;;;;5031998;28;20473;-67
2021/01/28 13:35:00;;;;;;;3.80;2.53;;;;;;;;;;5031417;28;20936;-67
2021/01/28 13:37:30;;;;;;;4.53;2.83;;;;;;;;;;5040132;28;20455;-66
2021/01/28 13:39:57;;;;;;;4.60;2.97;;;;;;;;;;5064925;28;20820;-68
2021/01/28 13:42:24;;;;;;;3.63;2.50;;;;;;;;;;5054359;28;20995;-66
2021/01/28 13:44:51;;;;;;;4.10;3.03;;;;;;;;;;5055394;28;20941;-67
2021/01/28 13:47:18;;;;;;;3.70;3.20;;;;;;;;;;5071368;28;21001;-66
2021/01/28 13:49:45;;;;;;;3.60;2.60;;;;;;;;;;5048769;28;20453;-66
2021/01/28 13:52:12;;;;;;;4.00;3.00;;;;;;;;;;5032243;28;20469;-66
2021/01/28 13:54:39;;;;;;;3.03;2.77;;;;;;;;;;5038808;28;20447;-67
2021/01/28 13:57:05;;;;;;;3.30;3.00;;;;;;;;;;5052838;28;20942;-67
2021/01/28 13:59:34;;;;;;;3.33;3.03;;;;;;;;;;5057742;28;20451;-66
2021/01/28 14:02:00;;;;;;;3.73;2.97;;;;;;;;;;5032670;28;20538;-66
2021/01/28 14:04:27;;;;;;;4.97;2.63;;;;;;;;;;5031920;28;20535;-69
2021/01/28 14:06:54;;;;;;;4.20;2.70;;;;;;;;;;5031720;28;20445;-66
2021/01/28 14:09:21;;;;;;;3.50;2.77;;;;;;;;;;5034519;28;20495;-66
2021/01/28 14:11:47;;;;;;;3.30;2.93;;;;;;;;;;5032512;28;20472;-66
2021/01/28 14:14:14;;;;;;;3.80;3.30;;;;;;;;;;5053155;28;20444;-67
2021/01/28 14:16:41;;;;;;;3.50;3.20;;;;;;;;;;5041738;28;20445;-70
2021/01/28 14:19:07;;;;;;;4.87;3.23;;;;;;;;;;5045501;28;20462;-68
2021/01/28 14:21:34;;;;;;;3.67;2.93;;;;;;;;;;5052263;28;20459;-69
2021/01/28 14:24:01;;;;;;;3.97;3.50;;;;;;;;;;5034990;28;20972;-69
2021/01/28 14:26:28;;;;;;;6.60;3.40;;;;;;;;;;5052484;28;20526;-69
2021/01/28 14:28:54;;;;;;;3.57;3.27;;;;;;;;;;5039643;28;20511;-69
2021/01/28 14:31:21;;;;;;;5.93;3.77;;;;;;;;;;5032295;28;20443;-70
2021/01/28 14:33:48;;;;;;;4.00;3.60;;;;;;;;;;5038137;28;20511;-69
2021/01/28 14:36:14;;;;;;;3.90;3.50;;;;;;;;;;5043791;28;20451;-69